Hauptseite
METAR-TAF:

METAR-TAF

Flughäfen :

Mailand, Italien

Flughafen Mailand-Linate

Breite: 45-26N, Länge: 009-17E, Höhe: 107 m

Beobachtung

Neuester Wetterbericht von vor 37 Minuten, um 10:50 UTC
Wind 7 kt aus Südwest, variierte zwischen Süd und West
Temperatur 11°C
Luftfeuchtigkeit 82%
Luftdruck 1021 hPa
Sichtweite: 1500 m
feuchter Dunst

METAR: LIML 231050Z 22007KT 180V260 3500 1500S BR NSC 11/08 Q1021 NOSIG

Zeit: 12:27 (11:27 UTC)

Prognose

Neuester Wetterbericht von vor 6 Stunden und 27 Minuten, um 05:00 UTC
Gültige Prognose vom 23 um 06 UTC bis 24 um 06 UTC
Wind 5 kt aus unterschiedlichen Richtungen
Sichtweite: 3500 m
Durchbrochene Bewölkung in der Höhe von 5000 ft
feuchter Dunst
Zeitweise
vom 23 um 06 UTC bis 23 um 12 UTC
Sprühregen

TAF: LIML 230500Z 2306/2406 VRB05KT 3500 BR BKN050 TEMPO 2306/2312 DZ

Wetterbeobachtungen und Prognosen von mehr als 4000 Flughäfen (METAR und TAF Bericht).

Die verfügbaren Stationen werden durch gelbe und rote Markierungen auf der Karte dargestellt.

Führen Sie die Maus auf sie, um den Namen der Station zu sehen.

Darauf klicken, um die Beobachtung von Wetterbeobachtungen und Prognosen zu sehen.

Um die Karte zu ändern : klicken Sie auf den grünen Tasten mit einem schwarzen Kreuz Zum Vergrößern, auf den grünen Button mit einem Gedankenstrich zu verkleinern, oder auf die grünen Pfeile für benachbarte Karten.


METAR-TAF: